Time,TemperatureF,DewpointF,PressureIn,WindDirection,WindDirectionDegrees,WindSpeedMPH,WindSpeedGustMPH,Humidity,HourlyPrecipIn,Conditions,Clouds,dailyrainin,SoftwareType,DateUTC
2013-02-05 00:01:00,5.0,0.2,29.88,SE,135,0.0,0.9,80,0.00,,,0.00,WUHU216HW,2013-02-05 06:01:00,
2013-02-05 00:06:00,4.9,0.0,29.89,SE,135,0.0,0.9,80,0.00,,,0.00,WUHU216HW,2013-02-05 06:06:00,
2013-02-05 00:11:00,4.7,-0.2,29.88,SSE,158,0.0,0.7,80,0.00,,,0.00,WUHU216HW,2013-02-05 06:11:00,
2013-02-05 00:16:00,4.7,-0.2,29.88,East,90,0.0,0.7,80,0.00,,,0.00,WUHU216HW,2013-02-05 06:16:00,
2013-02-05 00:22:00,4.9,0.0,29.88,East,90,0.0,0.4,80,0.00,,,0.00,WUHU216HW,2013-02-05 06:22:00,
2013-02-05 00:27:00,5.0,0.2,29.88,SSE,158,0.0,0.4,80,0.00,,,0.00,WUHU216HW,2013-02-05 06:27:00,
2013-02-05 00:32:00,5.4,0.5,29.87,SE,135,0.2,0.4,80,0.00,,,0.00,WUHU216HW,2013-02-05 06:32:00,
2013-02-05 00:37:00,5.4,0.5,29.87,SSE,158,0.0,0.4,80,0.00,,,0.00,WUHU216HW,2013-02-05 06:37:00,
2013-02-05 00:42:00,5.4,0.5,29.86,ESE,113,0.4,1.1,80,0.00,,,0.00,WUHU216HW,2013-02-05 06:42:00,
2013-02-05 00:47:00,4.9,-0.3,29.86,SSE,158,0.0,1.1,79,0.00,,,0.00,WUHU216HW,2013-02-05 06:47:00,
2013-02-05 00:52:00,4.7,-0.4,29.86,SSW,203,0.0,1.3,79,0.00,,,0.00,WUHU216HW,2013-02-05 06:52:00,
2013-02-05 00:57:00,4.7,-0.2,29.86,SW,225,0.7,3.1,80,0.00,,,0.00,WUHU216HW,2013-02-05 06:57:00,
2013-02-05 01:02:00,5.2,0.4,29.86,SSW,203,0.9,3.1,80,0.00,,,0.00,WUHU216HW,2013-02-05 07:02:00,
2013-02-05 01:07:00,5.4,0.3,29.86,SSW,203,1.6,2.5,79,0.00,,,0.00,WUHU216HW,2013-02-05 07:07:00,
2013-02-05 01:12:00,5.4,0.3,29.86,South,180,1.8,2.5,79,0.00,,,0.00,WUHU216HW,2013-02-05 07:12:00,
2013-02-05 01:17:00,5.4,0.3,29.86,South,180,2.0,2.5,79,0.00,,,0.00,WUHU216HW,2013-02-05 07:17:00,
2013-02-05 01:22:00,5.4,0.3,29.85,South,180,0.0,2.2,79,0.00,,,0.00,WUHU216HW,2013-02-05 07:22:00,
2013-02-05 01:27:00,5.0,-0.3,29.85,SSW,203,0.2,1.8,78,0.00,,,0.00,WUHU216HW,2013-02-05 07:27:00,
2013-02-05 01:32:00,4.5,-0.9,29.85,SW,225,0.9,2.2,78,0.00,,,0.00,WUHU216HW,2013-02-05 07:32:00,
2013-02-05 01:37:00,4.7,-0.4,29.85,SSW,203,0.7,2.2,79,0.00,,,0.00,WUHU216HW,2013-02-05 07:37:00,
2013-02-05 01:42:00,4.7,-0.4,29.85,SSW,203,0.7,1.8,79,0.00,,,0.00,WUHU216HW,2013-02-05 07:42:00,
2013-02-05 01:47:00,4.7,-0.2,29.85,SSW,203,0.0,1.8,80,0.00,,,0.00,WUHU216HW,2013-02-05 07:47:00,
2013-02-05 01:52:00,4.7,-0.4,29.85,SSW,203,0.4,0.7,79,0.00,,,0.00,WUHU216HW,2013-02-05 07:52:00,
2013-02-05 01:57:00,4.7,-0.4,29.85,SSW,203,0.4,0.7,79,0.00,,,0.00,WUHU216HW,2013-02-05 07:57:00,
2013-02-05 02:02:00,4.5,-0.6,29.85,SSW,203,0.7,0.7,79,0.00,,,0.00,WUHU216HW,2013-02-05 08:02:00,
2013-02-05 02:07:00,4.1,-1.0,29.85,SSE,158,0.0,0.9,79,0.00,,,0.00,WUHU216HW,2013-02-05 08:07:00,
2013-02-05 02:12:00,4.0,-1.2,29.84,South,180,0.2,0.9,79,0.00,,,0.00,WUHU216HW,2013-02-05 08:12:00,
2013-02-05 02:17:00,3.8,-1.3,29.84,South,180,0.0,1.3,79,0.00,,,0.00,WUHU216HW,2013-02-05 08:17:00,
2013-02-05 02:22:00,3.8,-1.3,29.84,South,180,0.0,1.3,79,0.00,,,0.00,WUHU216HW,2013-02-05 08:22:00,
2013-02-05 02:27:00,3.6,-1.5,29.84,South,180,0.0,0.0,79,0.00,,,0.00,WUHU216HW,2013-02-05 08:27:00,
2013-02-05 02:32:00,3.8,-1.1,29.84,South,180,0.0,0.2,80,0.00,,,0.00,WUHU216HW,2013-02-05 08:32:00,
2013-02-05 02:37:00,4.1,-0.4,29.84,WSW,248,0.4,0.7,81,0.00,,,0.00,WUHU216HW,2013-02-05 08:37:00,
2013-02-05 02:42:00,4.9,0.3,29.84,West,270,0.0,0.9,81,0.00,,,0.00,WUHU216HW,2013-02-05 08:42:00,
2013-02-05 02:47:00,5.2,0.4,29.84,West,270,0.0,0.9,80,0.00,,,0.00,WUHU216HW,2013-02-05 08:47:00,
2013-02-05 02:52:00,5.4,0.5,29.84,South,180,0.0,0.4,80,0.00,,,0.00,WUHU216HW,2013-02-05 08:52:00,
2013-02-05 02:57:00,5.4,0.5,29.84,West,270,0.2,0.9,80,0.00,,,0.00,WUHU216HW,2013-02-05 08:57:00,
2013-02-05 03:02:00,6.1,1.5,29.84,WSW,248,2.0,2.0,81,0.00,,,0.00,WUHU216HW,2013-02-05 09:02:00,
2013-02-05 03:07:00,6.8,2.3,29.84,WSW,248,0.0,2.0,81,0.00,,,0.00,WUHU216HW,2013-02-05 09:07:00,
2013-02-05 03:12:00,6.8,2.0,29.84,WSW,248,0.0,2.0,80,0.00,,,0.00,WUHU216HW,2013-02-05 09:12:00,
2013-02-05 03:17:00,7.4,2.8,29.84,SW,225,2.5,3.4,81,0.00,,,0.00,WUHU216HW,2013-02-05 09:17:00,
2013-02-05 03:22:00,8.5,3.1,29.84,South,180,1.1,3.4,78,0.00,,,0.00,WUHU216HW,2013-02-05 09:22:00,
2013-02-05 03:27:00,9.0,3.2,29.83,SSE,158,1.1,3.8,77,0.00,,,0.00,WUHU216HW,2013-02-05 09:27:00,
2013-02-05 03:32:00,9.4,3.6,29.83,South,180,1.1,3.8,77,0.00,,,0.00,WUHU216HW,2013-02-05 09:32:00,
2013-02-05 03:37:00,9.5,3.2,29.83,South,180,2.5,3.4,75,0.00,,,0.00,WUHU216HW,2013-02-05 09:37:00,
2013-02-05 03:42:00,9.7,3.1,29.83,WSW,248,0.7,3.4,74,0.00,,,0.00,WUHU216HW,2013-02-05 09:42:00,
2013-02-05 03:47:00,9.7,3.1,29.83,SSW,203,0.2,3.1,74,0.00,,,0.00,WUHU216HW,2013-02-05 09:47:00,
2013-02-05 03:52:00,9.7,3.3,29.82,SSW,203,0.7,2.9,75,0.00,,,0.00,WUHU216HW,2013-02-05 09:52:00,
2013-02-05 03:57:00,9.7,3.3,29.82,SW,225,2.0,2.9,75,0.00,,,0.00,WUHU216HW,2013-02-05 09:57:00,
2013-02-05 04:02:00,9.5,3.2,29.82,SSE,158,0.2,2.0,75,0.00,,,0.00,WUHU216HW,2013-02-05 10:02:00,
2013-02-05 04:07:00,9.5,3.4,29.81,South,180,0.2,1.8,76,0.00,,,0.00,WUHU216HW,2013-02-05 10:07:00,
2013-02-05 04:12:00,9.7,3.6,29.81,South,180,0.4,2.0,76,0.00,,,0.00,WUHU216HW,2013-02-05 10:12:00,
2013-02-05 04:17:00,9.7,3.3,29.81,South,180,0.7,2.9,75,0.00,,,0.00,WUHU216HW,2013-02-05 10:17:00,
2013-02-05 04:22:00,9.7,3.6,29.81,SE,135,0.0,2.9,76,0.00,,,0.00,WUHU216HW,2013-02-05 10:22:00,
2013-02-05 04:27:00,9.7,3.6,29.81,South,180,0.0,1.3,76,0.00,,,0.00,WUHU216HW,2013-02-05 10:27:00,
2013-02-05 04:32:00,9.7,3.6,29.81,SSE,158,0.4,1.8,76,0.00,,,0.00,WUHU216HW,2013-02-05 10:32:00,
2013-02-05 04:37:00,9.5,3.4,29.81,South,180,0.4,1.8,76,0.00,,,0.00,WUHU216HW,2013-02-05 10:37:00,
2013-02-05 04:42:00,9.5,3.7,29.81,South,180,0.7,3.1,77,0.00,,,0.00,WUHU216HW,2013-02-05 10:42:00,
2013-02-05 04:47:00,9.5,3.7,29.81,South,180,1.6,3.1,77,0.00,,,0.00,WUHU216HW,2013-02-05 10:47:00,
2013-02-05 04:52:00,9.5,3.7,29.80,SSE,158,1.6,2.0,77,0.00,,,0.00,WUHU216HW,2013-02-05 10:52:00,
2013-02-05 04:57:00,9.5,4.1,29.80,SSE,158,1.1,1.8,78,0.00,,,0.00,WUHU216HW,2013-02-05 10:57:00,
2013-02-05 05:02:00,9.7,4.1,29.80,SSE,158,0.7,2.0,78,0.00,,,0.00,WUHU216HW,2013-02-05 11:02:00,
2013-02-05 05:07:00,9.7,4.1,29.79,South,180,2.5,3.4,78,0.00,,,0.00,WUHU216HW,2013-02-05 11:07:00,
2013-02-05 05:12:00,9.7,4.5,29.78,SSE,158,5.1,5.1,79,0.00,,,0.00,WUHU216HW,2013-02-05 11:12:00,
2013-02-05 05:17:00,9.7,4.5,29.78,SSW,203,1.8,5.1,79,0.00,,,0.00,WUHU216HW,2013-02-05 11:17:00,
2013-02-05 05:22:00,9.7,4.5,29.78,South,180,2.5,4.3,79,0.00,,,0.00,WUHU216HW,2013-02-05 11:22:00,
2013-02-05 05:27:00,9.9,5.0,29.78,SSE,158,2.2,4.7,80,0.00,,,0.00,WUHU216HW,2013-02-05 11:27:00,
2013-02-05 05:32:00,10.1,5.0,29.77,South,180,3.1,4.7,80,0.00,,,0.00,WUHU216HW,2013-02-05 11:32:00,
2013-02-05 05:37:00,10.1,5.0,29.77,South,180,2.2,4.5,80,0.00,,,0.00,WUHU216HW,2013-02-05 11:37:00,
2013-02-05 05:42:00,10.4,5.9,29.77,South,180,3.4,4.7,82,0.00,,,0.00,WUHU216HW,2013-02-05 11:42:00,
2013-02-05 05:47:00,10.6,6.1,29.77,SSE,158,5.4,5.4,82,0.00,,,0.00,WUHU216HW,2013-02-05 11:47:00,
2013-02-05 05:52:00,11.0,6.8,29.77,South,180,3.6,5.4,83,0.00,,,0.00,WUHU216HW,2013-02-05 11:52:00,
2013-02-05 05:57:00,11.2,6.9,29.76,SW,225,2.0,4.7,83,0.00,,,0.00,WUHU216HW,2013-02-05 11:57:00,
2013-02-05 06:02:00,11.3,7.1,29.76,SW,225,4.0,5.4,83,0.00,,,0.00,WUHU216HW,2013-02-05 12:02:00,
2013-02-05 06:07:00,11.7,7.5,29.75,SSE,158,5.8,6.3,83,0.00,,,0.00,WUHU216HW,2013-02-05 12:07:00,
2013-02-05 06:12:00,11.9,7.7,29.75,SSW,203,6.3,8.9,83,0.00,,,0.00,WUHU216HW,2013-02-05 12:12:00,
2013-02-05 06:17:00,12.1,8.1,29.75,WSW,248,1.8,8.9,84,0.00,,,0.00,WUHU216HW,2013-02-05 12:17:00,
2013-02-05 06:22:00,12.4,8.5,29.75,South,180,2.5,8.5,84,0.00,,,0.00,WUHU216HW,2013-02-05 12:22:00,
2013-02-05 06:27:00,12.4,8.5,29.75,SSW,203,4.9,6.9,84,0.00,,,0.00,WUHU216HW,2013-02-05 12:27:00,
2013-02-05 06:32:00,12.4,8.5,29.75,SSW,203,4.9,4.9,84,0.00,,,0.00,WUHU216HW,2013-02-05 12:32:00,
2013-02-05 07:00:00,13.1,9.2,29.77,SSW,203,1.1,1.1,84,0.00,,,0.00,WUHU216HW,2013-02-05 13:00:00,
2013-02-05 07:05:00,13.3,9.4,29.77,SSE,158,2.0,4.0,84,0.00,,,0.00,WUHU216HW,2013-02-05 13:05:00,
2013-02-05 07:10:00,13.3,9.4,29.77,SSW,203,3.1,4.0,84,0.00,,,0.00,WUHU216HW,2013-02-05 13:10:00,
2013-02-05 07:15:00,13.3,9.4,29.76,SSW,203,3.4,4.0,84,0.00,,,0.00,WUHU216HW,2013-02-05 13:15:00,
2013-02-05 07:20:00,13.5,9.5,29.76,SSW,203,4.7,4.7,84,0.00,,,0.00,WUHU216HW,2013-02-05 13:20:00,
2013-02-05 07:25:00,13.7,9.7,29.76,WSW,248,2.5,4.7,84,0.00,,,0.00,WUHU216HW,2013-02-05 13:25:00,
2013-02-05 07:30:00,13.7,9.7,29.76,South,180,2.5,4.7,84,0.00,,,0.00,WUHU216HW,2013-02-05 13:30:00,
2013-02-05 07:35:00,13.9,9.9,29.75,SSW,203,2.7,3.6,84,0.00,,,0.00,WUHU216HW,2013-02-05 13:35:00,
2013-02-05 07:40:00,14.0,10.1,29.75,West,270,2.2,3.8,84,0.00,,,0.00,WUHU216HW,2013-02-05 13:40:00,
2013-02-05 07:45:00,14.0,10.1,29.75,SSW,203,2.5,3.8,84,0.00,,,0.00,WUHU216HW,2013-02-05 13:45:00,
2013-02-05 07:50:00,14.0,10.4,29.74,SSW,203,1.8,6.3,85,0.00,,,0.00,WUHU216HW,2013-02-05 13:50:00,
2013-02-05 07:55:00,14.4,10.5,29.75,SW,225,0.4,6.3,84,0.00,,,0.00,WUHU216HW,2013-02-05 13:55:00,
2013-02-05 08:00:00,14.6,10.6,29.74,South,180,1.3,5.6,84,0.00,,,0.00,WUHU216HW,2013-02-05 14:00:00,
2013-02-05 08:05:00,14.8,10.8,29.74,SSW,203,1.6,4.7,84,0.00,,,0.00,WUHU216HW,2013-02-05 14:05:00,
2013-02-05 08:10:00,15.3,11.3,29.75,SW,225,2.0,4.7,84,0.00,,,0.00,WUHU216HW,2013-02-05 14:10:00,
2013-02-05 08:15:00,15.5,11.4,29.75,South,180,4.3,4.5,84,0.00,,,0.00,WUHU216HW,2013-02-05 14:15:00,
2013-02-05 08:20:00,15.7,11.6,29.75,SW,225,1.8,4.3,84,0.00,,,0.00,WUHU216HW,2013-02-05 14:20:00,
2013-02-05 08:25:00,16.0,12.0,29.75,SW,225,1.8,4.0,84,0.00,,,0.00,WUHU216HW,2013-02-05 14:25:00,
2013-02-05 08:30:00,16.4,12.3,29.75,SSW,203,2.0,4.9,84,0.00,,,0.00,WUHU216HW,2013-02-05 14:30:00,
2013-02-05 08:35:00,16.7,12.7,29.74,NW,315,4.5,4.9,84,0.00,,,0.00,WUHU216HW,2013-02-05 14:35:00,
2013-02-05 08:40:00,17.1,13.0,29.75,SSE,158,2.9,4.9,84,0.00,,,0.00,WUHU216HW,2013-02-05 14:40:00,
2013-02-05 08:45:00,17.3,12.9,29.75,SE,135,2.5,6.0,83,0.00,,,0.00,WUHU216HW,2013-02-05 14:45:00,
2013-02-05 08:50:00,17.6,13.2,29.74,WSW,248,2.0,6.9,83,0.00,,,0.00,WUHU216HW,2013-02-05 14:50:00,
2013-02-05 08:55:00,18.2,13.5,29.74,WSW,248,2.5,6.9,82,0.00,,,0.00,WUHU216HW,2013-02-05 14:55:00,
2013-02-05 09:00:00,18.2,13.2,29.75,SW,225,3.1,6.5,81,0.00,,,0.00,WUHU216HW,2013-02-05 15:00:00,
2013-02-05 09:05:00,18.2,13.2,29.74,WSW,248,5.8,6.5,81,0.00,,,0.00,WUHU216HW,2013-02-05 15:05:00,
2013-02-05 09:10:00,18.2,13.5,29.74,WSW,248,3.6,6.3,82,0.00,,,0.00,WUHU216HW,2013-02-05 15:10:00,
2013-02-05 09:15:00,18.4,13.7,29.74,SW,225,5.4,6.3,82,0.00,,,0.00,WUHU216HW,2013-02-05 15:15:00,
2013-02-05 09:20:00,18.7,14.0,29.74,SW,225,4.3,5.8,82,0.00,,,0.00,WUHU216HW,2013-02-05 15:20:00,
2013-02-05 09:25:00,19.1,14.4,29.74,South,180,2.2,5.6,82,0.00,,,0.00,WUHU216HW,2013-02-05 15:25:00,
2013-02-05 09:30:00,19.1,14.4,29.74,SSW,203,2.7,6.9,82,0.00,,,0.00,WUHU216HW,2013-02-05 15:30:00,
2013-02-05 09:35:00,19.3,14.6,29.74,SSW,203,2.7,6.9,82,0.00,,,0.00,WUHU216HW,2013-02-05 15:35:00,
2013-02-05 09:40:00,19.3,14.6,29.74,SSW,203,4.3,4.7,82,0.00,,,0.00,WUHU216HW,2013-02-05 15:40:00,
2013-02-05 09:45:00,19.6,14.9,29.74,SSW,203,1.8,4.3,82,0.00,,,0.00,WUHU216HW,2013-02-05 15:45:00,
2013-02-05 09:50:00,19.6,14.9,29.74,SSW,203,1.8,3.8,82,0.00,,,0.00,WUHU216HW,2013-02-05 15:50:00,
2013-02-05 10:00:00,20.3,15.7,29.73,SSW,203,4.7,4.7,82,0.00,,,0.00,WUHU216HW,2013-02-05 16:00:00,
2013-02-05 10:05:00,20.2,15.8,29.73,SW,225,1.8,4.7,83,0.00,,,0.00,WUHU216HW,2013-02-05 16:05:00,
2013-02-05 10:10:00,20.3,15.9,29.73,WSW,248,3.6,4.7,83,0.00,,,0.00,WUHU216HW,2013-02-05 16:10:00,
2013-02-05 10:15:00,20.7,16.6,29.73,South,180,3.4,4.0,84,0.00,,,0.00,WUHU216HW,2013-02-05 16:15:00,
2013-02-05 10:20:00,20.3,16.2,29.73,South,180,3.6,4.0,84,0.00,,,0.00,WUHU216HW,2013-02-05 16:20:00,
2013-02-05 10:25:00,20.3,16.2,29.73,WSW,248,2.5,4.7,84,0.00,,,0.00,WUHU216HW,2013-02-05 16:25:00,
2013-02-05 10:30:00,20.5,16.4,29.73,SSW,203,2.0,4.7,84,0.00,,,0.00,WUHU216HW,2013-02-05 16:30:00,
2013-02-05 10:35:00,20.5,16.4,29.73,SSE,158,2.0,5.4,84,0.00,,,0.00,WUHU216HW,2013-02-05 16:35:00,
2013-02-05 10:40:00,20.5,16.7,29.73,South,180,0.9,5.4,85,0.00,,,0.00,WUHU216HW,2013-02-05 16:40:00,
2013-02-05 10:45:00,20.5,16.9,29.73,South,180,1.8,4.0,86,0.00,,,0.00,WUHU216HW,2013-02-05 16:45:00,
2013-02-05 10:50:00,20.9,17.3,29.74,SSW,203,1.8,4.7,86,0.00,,,0.00,WUHU216HW,2013-02-05 16:50:00,
2013-02-05 10:55:00,21.4,17.8,29.74,WSW,248,3.6,4.7,86,0.00,,,0.00,WUHU216HW,2013-02-05 16:55:00,
2013-02-05 11:00:00,22.0,18.4,29.74,SW,225,2.5,4.7,86,0.00,,,0.00,WUHU216HW,2013-02-05 17:00:00,
2013-02-05 11:05:00,22.7,19.1,29.74,WNW,293,5.4,5.4,86,0.00,,,0.00,WUHU216HW,2013-02-05 17:05:00,
2013-02-05 11:10:00,23.2,19.6,29.74,SW,225,2.9,5.4,86,0.00,,,0.00,WUHU216HW,2013-02-05 17:10:00,
2013-02-05 11:15:00,23.8,19.9,29.74,SW,225,4.0,4.3,85,0.00,,,0.00,WUHU216HW,2013-02-05 17:15:00,
2013-02-05 11:20:00,24.1,19.7,29.74,SW,225,3.4,6.5,83,0.00,,,0.00,WUHU216HW,2013-02-05 17:20:00,
2013-02-05 11:25:00,24.1,20.0,29.73,SW,225,4.7,6.5,84,0.00,,,0.00,WUHU216HW,2013-02-05 17:25:00,
2013-02-05 11:30:00,24.1,19.4,29.73,SSW,203,4.9,5.4,82,0.00,,,0.00,WUHU216HW,2013-02-05 17:30:00,
2013-02-05 11:35:00,24.1,19.7,29.73,WSW,248,2.9,4.9,83,0.00,,,0.00,WUHU216HW,2013-02-05 17:35:00,
2013-02-05 11:40:00,24.3,19.6,29.73,South,180,1.8,4.9,82,0.00,,,0.00,WUHU216HW,2013-02-05 17:40:00,
2013-02-05 11:45:00,24.7,20.0,29.74,SSW,203,0.4,4.9,82,0.00,,,0.00,WUHU216HW,2013-02-05 17:45:00,
2013-02-05 11:50:00,25.2,20.5,29.74,WSW,248,1.3,4.9,82,0.00,,,0.00,WUHU216HW,2013-02-05 17:50:00,
2013-02-05 11:55:00,25.4,20.3,29.74,NE,45,3.1,3.1,81,0.00,,,0.00,WUHU216HW,2013-02-05 17:55:00,
2013-02-05 12:00:00,25.7,20.4,29.74,North,0,1.8,3.6,80,0.00,,,0.00,WUHU216HW,2013-02-05 18:00:00,
2013-02-05 12:05:00,26.6,21.2,29.74,WSW,248,3.4,3.6,80,0.00,,,0.00,WUHU216HW,2013-02-05 18:05:00,
2013-02-05 12:10:00,26.5,20.8,29.74,SSW,203,3.6,4.5,79,0.00,,,0.00,WUHU216HW,2013-02-05 18:10:00,
2013-02-05 12:15:00,26.6,21.0,29.73,SSE,158,0.9,4.5,79,0.00,,,0.00,WUHU216HW,2013-02-05 18:15:00,
2013-02-05 12:20:00,27.0,21.3,29.73,South,180,2.5,4.0,79,0.00,,,0.00,WUHU216HW,2013-02-05 18:20:00,
2013-02-05 12:25:00,27.4,21.7,29.73,SSW,203,1.1,4.0,79,0.00,,,0.00,WUHU216HW,2013-02-05 18:25:00,
2013-02-05 12:30:00,27.5,21.5,29.73,NW,315,1.8,4.3,78,0.00,,,0.00,WUHU216HW,2013-02-05 18:30:00,
2013-02-05 12:35:00,27.5,21.3,29.73,SSW,203,2.2,4.9,77,0.00,,,0.00,WUHU216HW,2013-02-05 18:35:00,
2013-02-05 12:40:00,29.2,22.9,29.73,NNE,23,0.4,4.9,77,0.00,,,0.00,WUHU216HW,2013-02-05 18:40:00,
2013-02-05 12:45:00,31.5,24.9,29.73,NNW,338,2.5,3.6,76,0.00,,,0.00,WUHU216HW,2013-02-05 18:45:00,
2013-02-05 12:50:00,31.1,23.8,29.74,WNW,293,0.4,3.1,74,0.00,,,0.00,WUHU216HW,2013-02-05 18:50:00,
2013-02-05 12:55:00,30.1,22.8,29.74,NNW,338,1.1,2.7,74,0.00,,,0.00,WUHU216HW,2013-02-05 18:55:00,
2013-02-05 13:00:00,29.7,22.7,29.74,North,0,1.3,2.7,75,0.00,,,0.00,WUHU216HW,2013-02-05 19:00:00,
2013-02-05 13:05:00,28.6,21.7,29.75,NNW,338,2.7,4.7,75,0.00,,,0.00,WUHU216HW,2013-02-05 19:05:00,
2013-02-05 13:10:00,27.7,20.8,29.75,NW,315,1.8,4.7,75,0.00,,,0.00,WUHU216HW,2013-02-05 19:10:00,
2013-02-05 13:16:00,27.2,20.5,29.75,North,0,2.7,4.7,76,0.00,,,0.00,WUHU216HW,2013-02-05 19:16:00,
2013-02-05 13:21:00,27.0,20.7,29.75,ENE,68,2.0,4.7,77,0.00,,,0.00,WUHU216HW,2013-02-05 19:21:00,
2013-02-05 13:26:00,27.0,21.0,29.75,NNW,338,3.8,4.7,78,0.00,,,0.00,WUHU216HW,2013-02-05 19:26:00,
2013-02-05 13:31:00,27.0,21.0,29.75,North,0,1.6,4.3,78,0.00,,,0.00,WUHU216HW,2013-02-05 19:31:00,
2013-02-05 13:35:00,27.0,21.0,29.75,NNW,338,3.6,4.3,78,0.00,,,0.00,WUHU216HW,2013-02-05 19:35:00,
2013-02-05 13:41:00,27.4,21.3,29.75,NNE,23,2.5,4.3,78,0.00,,,0.00,WUHU216HW,2013-02-05 19:41:00,
2013-02-05 13:46:00,27.5,21.3,29.75,North,0,3.4,3.6,77,0.00,,,0.00,WUHU216HW,2013-02-05 19:46:00,
2013-02-05 13:51:00,27.7,21.7,29.75,NW,315,3.4,3.6,78,0.00,,,0.00,WUHU216HW,2013-02-05 19:51:00,
2013-02-05 13:56:00,27.4,21.1,29.76,West,270,2.9,4.9,77,0.00,,,0.00,WUHU216HW,2013-02-05 19:56:00,
2013-02-05 14:01:00,27.4,21.3,29.76,WSW,248,1.3,4.9,78,0.00,,,0.00,WUHU216HW,2013-02-05 20:01:00,
2013-02-05 14:06:00,27.7,22.1,29.76,North,0,3.8,4.7,79,0.00,,,0.00,WUHU216HW,2013-02-05 20:06:00,
2013-02-05 14:11:00,27.5,21.5,29.76,NNW,338,5.1,5.4,78,0.00,,,0.00,WUHU216HW,2013-02-05 20:11:00,
2013-02-05 14:16:00,27.4,21.7,29.77,NW,315,5.1,5.4,79,0.00,,,0.00,WUHU216HW,2013-02-05 20:16:00,
2013-02-05 14:21:00,27.5,21.9,29.76,NNE,23,1.6,5.4,79,0.00,,,0.00,WUHU216HW,2013-02-05 20:21:00,
2013-02-05 14:26:00,27.9,22.2,29.77,North,0,4.5,5.4,79,0.00,,,0.00,WUHU216HW,2013-02-05 20:26:00,
2013-02-05 14:31:00,27.9,21.9,29.77,NNW,338,2.0,4.7,78,0.00,,,0.00,WUHU216HW,2013-02-05 20:31:00,
2013-02-05 14:36:00,27.9,22.2,29.77,NNW,338,2.0,4.7,79,0.00,,,0.00,WUHU216HW,2013-02-05 20:36:00,
2013-02-05 14:41:00,28.1,22.1,29.77,West,270,2.0,4.7,78,0.00,,,0.00,WUHU216HW,2013-02-05 20:41:00,
2013-02-05 14:46:00,28.4,22.4,29.77,NNE,23,2.5,4.7,78,0.00,,,0.00,WUHU216HW,2013-02-05 20:46:00,
2013-02-05 14:51:00,28.4,22.4,29.77,NNW,338,3.4,4.0,78,0.00,,,0.00,WUHU216HW,2013-02-05 20:51:00,
2013-02-05 14:56:00,28.4,22.4,29.77,NNW,338,3.4,4.0,78,0.00,,,0.00,WUHU216HW,2013-02-05 20:56:00,
2013-02-05 15:01:00,28.1,22.1,29.79,NNW,338,2.9,3.6,78,0.00,,,0.00,WUHU216HW,2013-02-05 21:01:00,
2013-02-05 15:06:00,28.1,22.1,29.79,NW,315,1.3,3.6,78,0.00,,,0.00,WUHU216HW,2013-02-05 21:06:00,
2013-02-05 15:11:00,28.1,22.1,29.79,NW,315,1.3,2.9,78,0.00,,,0.00,WUHU216HW,2013-02-05 21:11:00,
2013-02-05 16:00:00,28.3,22.6,29.82,NNW,338,2.2,2.2,79,0.00,,,0.00,WUHU216HW,2013-02-05 22:00:00,
2013-02-05 16:05:00,28.4,22.8,29.82,NNW,338,3.1,4.0,79,0.00,,,0.00,WUHU216HW,2013-02-05 22:05:00,
2013-02-05 16:10:00,28.3,22.6,29.82,NNE,23,6.5,8.1,79,0.00,,,0.00,WUHU216HW,2013-02-05 22:10:00,
2013-02-05 16:15:00,28.4,22.8,29.83,NNW,338,4.5,8.1,79,0.00,,,0.00,WUHU216HW,2013-02-05 22:15:00,
2013-02-05 16:20:00,28.4,22.8,29.83,NNE,23,9.2,10.1,79,0.00,,,0.00,WUHU216HW,2013-02-05 22:20:00,
2013-02-05 16:25:00,28.4,22.8,29.83,NNW,338,4.7,10.1,79,0.00,,,0.00,WUHU216HW,2013-02-05 22:25:00,
2013-02-05 16:30:00,28.4,22.8,29.84,North,0,6.9,8.7,79,0.00,,,0.00,WUHU216HW,2013-02-05 22:30:00,
2013-02-05 16:35:00,28.4,22.8,29.84,NNE,23,8.1,8.5,79,0.00,,,0.00,WUHU216HW,2013-02-05 22:35:00,
2013-02-05 16:40:00,28.4,22.8,29.84,NW,315,5.4,8.5,79,0.00,,,0.00,WUHU216HW,2013-02-05 22:40:00,
2013-02-05 16:45:00,28.4,22.8,29.84,NNE,23,3.6,8.5,79,0.00,,,0.00,WUHU216HW,2013-02-05 22:45:00,
2013-02-05 16:50:00,28.4,22.8,29.85,NNW,338,3.4,7.4,79,0.00,,,0.00,WUHU216HW,2013-02-05 22:50:00,
2013-02-05 16:55:00,28.3,22.6,29.85,North,0,5.1,5.8,79,0.00,,,0.00,WUHU216HW,2013-02-05 22:55:00,
2013-02-05 17:00:00,28.3,22.9,29.85,NNW,338,3.4,6.3,80,0.00,,,0.00,WUHU216HW,2013-02-05 23:00:00,
2013-02-05 17:05:00,28.3,22.9,29.85,NNE,23,3.8,6.3,80,0.00,,,0.00,WUHU216HW,2013-02-05 23:05:00,
2013-02-05 17:11:00,28.3,22.9,29.86,NNW,338,2.5,5.8,80,0.00,,,0.00,WUHU216HW,2013-02-05 23:11:00,
2013-02-05 17:16:00,28.3,22.9,29.86,North,0,6.3,9.2,80,0.00,,,0.00,WUHU216HW,2013-02-05 23:16:00,
2013-02-05 17:21:00,28.3,22.9,29.86,NNW,338,7.6,9.2,80,0.00,,,0.00,WUHU216HW,2013-02-05 23:21:00,
2013-02-05 17:26:00,28.1,22.4,29.86,North,0,3.4,7.6,79,0.00,,,0.00,WUHU216HW,2013-02-05 23:26:00,
2013-02-05 17:31:00,28.1,22.4,29.87,NNE,23,4.5,8.5,79,0.00,,,0.00,WUHU216HW,2013-02-05 23:31:00,
2013-02-05 17:36:00,28.1,22.4,29.88,NNW,338,10.5,10.5,79,0.00,,,0.00,WUHU216HW,2013-02-05 23:36:00,
2013-02-05 17:41:00,28.1,22.4,29.88,North,0,6.7,10.5,79,0.00,,,0.00,WUHU216HW,2013-02-05 23:41:00,
2013-02-05 17:46:00,28.1,22.4,29.88,North,0,3.8,10.5,79,0.00,,,0.00,WUHU216HW,2013-02-05 23:46:00,
2013-02-05 17:51:00,28.1,22.4,29.88,North,0,6.9,9.2,79,0.00,,,0.00,WUHU216HW,2013-02-05 23:51:00,
2013-02-05 17:56:00,28.1,22.4,29.89,North,0,6.5,7.2,79,0.00,,,0.00,WUHU216HW,2013-02-05 23:56:00,
2013-02-05 18:01:00,27.9,22.2,29.89,NNW,338,4.7,8.7,79,0.00,,,0.00,WUHU216HW,2013-02-06 00:01:00,
2013-02-05 18:06:00,27.9,22.2,29.89,NNE,23,4.7,8.7,79,0.00,,,0.00,WUHU216HW,2013-02-06 00:06:00,
2013-02-05 18:11:00,27.9,22.2,29.89,NNW,338,7.6,10.3,79,0.00,,,0.00,WUHU216HW,2013-02-06 00:11:00,
2013-02-05 18:16:00,27.7,22.1,29.90,North,0,7.8,10.3,79,0.00,,,0.00,WUHU216HW,2013-02-06 00:16:00,
2013-02-05 18:21:00,27.7,22.1,29.91,NNW,338,6.9,9.4,79,0.00,,,0.00,WUHU216HW,2013-02-06 00:21:00,
2013-02-05 18:26:00,27.7,22.1,29.91,North,0,4.7,9.6,79,0.00,,,0.00,WUHU216HW,2013-02-06 00:26:00,
2013-02-05 18:31:00,27.5,21.9,29.91,NNW,338,3.4,9.6,79,0.00,,,0.00,WUHU216HW,2013-02-06 00:31:00,
2013-02-05 18:36:00,27.5,21.9,29.91,NNW,338,5.6,8.5,79,0.00,,,0.00,WUHU216HW,2013-02-06 00:36:00,
2013-02-05 18:41:00,27.4,21.3,29.91,North,0,5.1,9.8,78,0.00,,,0.00,WUHU216HW,2013-02-06 00:41:00,
2013-02-05 18:46:00,27.4,21.3,29.92,North,0,6.9,9.8,78,0.00,,,0.00,WUHU216HW,2013-02-06 00:46:00,
2013-02-05 18:51:00,27.4,21.3,29.92,North,0,4.9,9.2,78,0.00,,,0.00,WUHU216HW,2013-02-06 00:51:00,
2013-02-05 18:56:00,27.2,20.9,29.92,NNW,338,3.8,9.2,77,0.00,,,0.00,WUHU216HW,2013-02-06 00:56:00,
2013-02-05 19:01:00,27.2,20.9,29.92,North,0,3.4,6.9,77,0.00,,,0.00,WUHU216HW,2013-02-06 01:01:00,
2013-02-05 19:06:00,27.0,20.7,29.93,NNW,338,3.8,7.6,77,0.00,,,0.00,WUHU216HW,2013-02-06 01:06:00,
2013-02-05 19:11:00,27.0,20.7,29.93,North,0,2.9,7.6,77,0.00,,,0.00,WUHU216HW,2013-02-06 01:11:00,
2013-02-05 19:16:00,27.0,20.7,29.93,NNW,338,5.4,6.7,77,0.00,,,0.00,WUHU216HW,2013-02-06 01:16:00,
2013-02-05 19:21:00,26.8,20.8,29.93,North,0,4.3,8.5,78,0.00,,,0.00,WUHU216HW,2013-02-06 01:21:00,
2013-02-05 19:26:00,26.6,20.6,29.94,North,0,4.7,8.5,78,0.00,,,0.00,WUHU216HW,2013-02-06 01:26:00,
2013-02-05 19:31:00,26.3,20.6,29.94,North,0,6.5,8.5,79,0.00,,,0.00,WUHU216HW,2013-02-06 01:31:00,
2013-02-05 19:37:00,26.3,20.6,29.94,North,0,2.9,9.8,79,0.00,,,0.00,WUHU216HW,2013-02-06 01:37:00,
2013-02-05 19:42:00,26.1,20.4,29.95,North,0,5.4,9.8,79,0.00,,,0.00,WUHU216HW,2013-02-06 01:42:00,
2013-02-05 19:47:00,25.9,20.0,29.95,North,0,4.0,7.2,78,0.00,,,0.00,WUHU216HW,2013-02-06 01:47:00,
2013-02-05 19:52:00,25.9,20.0,29.95,NNW,338,3.1,7.2,78,0.00,,,0.00,WUHU216HW,2013-02-06 01:52:00,
2013-02-05 19:57:00,25.9,19.6,29.95,North,0,6.7,6.9,77,0.00,,,0.00,WUHU216HW,2013-02-06 01:57:00,
2013-02-05 20:02:00,25.9,19.0,29.95,North,0,3.8,7.4,75,0.00,,,0.00,WUHU216HW,2013-02-06 02:02:00,
2013-02-05 20:07:00,25.9,19.0,29.95,NNW,338,7.2,7.4,75,0.00,,,0.00,WUHU216HW,2013-02-06 02:07:00,
2013-02-05 20:12:00,25.7,18.8,29.96,NNE,23,3.4,7.6,75,0.00,,,0.00,WUHU216HW,2013-02-06 02:12:00,
2013-02-05 20:17:00,25.6,19.0,29.96,North,0,4.5,7.6,76,0.00,,,0.00,WUHU216HW,2013-02-06 02:17:00,
2013-02-05 20:22:00,25.4,18.8,29.96,North,0,4.7,5.6,76,0.00,,,0.00,WUHU216HW,2013-02-06 02:22:00,
2013-02-05 20:27:00,25.0,18.8,29.97,North,0,3.1,6.5,77,0.00,,,0.00,WUHU216HW,2013-02-06 02:27:00,
2013-02-05 20:32:00,25.0,18.8,29.97,NNW,338,4.0,6.5,77,0.00,,,0.00,WUHU216HW,2013-02-06 02:32:00,
2013-02-05 20:37:00,24.8,18.6,29.97,NNW,338,4.7,10.3,77,0.00,,,0.00,WUHU216HW,2013-02-06 02:37:00,
2013-02-05 20:42:00,24.7,18.5,29.97,NNW,338,4.0,10.3,77,0.00,,,0.00,WUHU216HW,2013-02-06 02:42:00,
2013-02-05 20:47:00,24.1,17.9,29.97,North,0,6.0,9.4,77,0.00,,,0.00,WUHU216HW,2013-02-06 02:47:00,
2013-02-05 20:52:00,24.1,17.9,29.97,NNE,23,5.8,9.4,77,0.00,,,0.00,WUHU216HW,2013-02-06 02:52:00,
2013-02-05 20:57:00,23.9,17.8,29.98,North,0,4.9,9.2,77,0.00,,,0.00,WUHU216HW,2013-02-06 02:57:00,
2013-02-05 21:02:00,23.8,17.7,29.98,North,0,4.7,9.2,77,0.00,,,0.00,WUHU216HW,2013-02-06 03:02:00,
2013-02-05 21:07:00,23.8,17.7,29.99,NNW,338,4.7,7.4,77,0.00,,,0.00,WUHU216HW,2013-02-06 03:07:00,
2013-02-05 21:12:00,23.6,17.5,29.99,North,0,5.4,7.4,77,0.00,,,0.00,WUHU216HW,2013-02-06 03:12:00,
2013-02-05 21:17:00,23.6,17.5,29.99,North,0,4.3,5.6,77,0.00,,,0.00,WUHU216HW,2013-02-06 03:17:00,
2013-02-05 21:22:00,23.4,16.9,29.99,NNW,338,5.4,8.1,76,0.00,,,0.00,WUHU216HW,2013-02-06 03:22:00,
2013-02-05 21:27:00,23.2,16.7,30.00,North,0,4.0,8.1,76,0.00,,,0.00,WUHU216HW,2013-02-06 03:27:00,
2013-02-05 21:32:00,23.0,16.6,30.00,NNW,338,4.0,8.7,76,0.00,,,0.00,WUHU216HW,2013-02-06 03:32:00,
2013-02-05 21:37:00,22.9,16.4,30.00,NNE,23,4.0,8.7,76,0.00,,,0.00,WUHU216HW,2013-02-06 03:37:00,
2013-02-05 21:42:00,22.7,16.2,30.00,North,0,6.7,7.6,76,0.00,,,0.00,WUHU216HW,2013-02-06 03:42:00,
2013-02-05 21:48:00,22.7,16.2,30.00,North,0,5.1,6.9,76,0.00,,,0.00,WUHU216HW,2013-02-06 03:48:00,
2013-02-05 21:53:00,22.5,16.0,30.00,ENE,68,5.4,6.9,76,0.00,,,0.00,WUHU216HW,2013-02-06 03:53:00,
2013-02-05 21:58:00,22.0,15.5,30.01,NNW,338,3.4,5.8,76,0.00,,,0.00,WUHU216HW,2013-02-06 03:58:00,
2013-02-05 22:03:00,21.6,15.1,30.01,North,0,4.0,5.8,76,0.00,,,0.00,WUHU216HW,2013-02-06 04:03:00,
2013-02-05 22:08:00,21.2,15.1,30.01,North,0,3.4,5.1,77,0.00,,,0.00,WUHU216HW,2013-02-06 04:08:00,
2013-02-05 22:13:00,21.1,14.6,30.01,North,0,1.8,4.5,76,0.00,,,0.00,WUHU216HW,2013-02-06 04:13:00,
2013-02-05 22:18:00,20.7,14.2,30.01,NNW,338,2.2,4.5,76,0.00,,,0.00,WUHU216HW,2013-02-06 04:18:00,
2013-02-05 22:23:00,20.5,14.0,30.01,North,0,3.6,3.8,76,0.00,,,0.00,WUHU216HW,2013-02-06 04:23:00,
2013-02-05 22:28:00,20.2,13.7,30.02,North,0,1.3,3.8,76,0.00,,,0.00,WUHU216HW,2013-02-06 04:28:00,
2013-02-05 22:33:00,19.6,13.1,30.02,North,0,0.4,3.6,76,0.00,,,0.00,WUHU216HW,2013-02-06 04:33:00,
2013-02-05 22:38:00,18.9,12.5,30.02,North,0,0.4,1.6,76,0.00,,,0.00,WUHU216HW,2013-02-06 04:38:00,
2013-02-05 22:43:00,18.4,12.2,30.03,North,0,0.0,1.3,77,0.00,,,0.00,WUHU216HW,2013-02-06 04:43:00,
2013-02-05 22:48:00,17.6,11.5,30.03,North,0,0.0,1.3,77,0.00,,,0.00,WUHU216HW,2013-02-06 04:48:00,
2013-02-05 22:53:00,17.1,11.1,30.03,North,0,0.0,0.7,77,0.00,,,0.00,WUHU216HW,2013-02-06 04:53:00,
2013-02-05 22:58:00,16.4,10.7,30.03,North,0,0.0,0.2,78,0.00,,,0.00,WUHU216HW,2013-02-06 04:58:00,
2013-02-05 23:00:00,16.4,10.7,30.03,North,0,0.0,0.0,78,0.00,,,0.00,WUHU216HW,2013-02-06 05:00:00,
2013-02-05 23:05:00,16.0,10.4,30.04,North,0,0.0,0.0,78,0.00,,,0.00,WUHU216HW,2013-02-06 05:05:00,
2013-02-05 23:10:00,15.5,9.6,30.04,North,0,0.0,0.0,77,0.00,,,0.00,WUHU216HW,2013-02-06 05:10:00,
2013-02-05 23:15:00,14.6,8.6,30.03,North,0,0.7,0.7,77,0.00,,,0.00,WUHU216HW,2013-02-06 05:15:00,
2013-02-05 23:20:00,13.3,7.8,30.04,North,0,0.4,0.7,78,0.00,,,0.00,WUHU216HW,2013-02-06 05:20:00,
2013-02-05 23:25:00,12.8,7.5,30.04,North,0,0.0,0.4,79,0.00,,,0.00,WUHU216HW,2013-02-06 05:25:00,
2013-02-05 23:31:00,12.6,7.6,30.04,North,0,0.0,0.4,80,0.00,,,0.00,WUHU216HW,2013-02-06 05:31:00,
2013-02-05 23:35:00,12.6,7.8,30.04,North,0,0.7,0.7,81,0.00,,,0.00,WUHU216HW,2013-02-06 05:35:00,
2013-02-05 23:40:00,11.3,6.6,30.05,North,0,2.0,3.4,81,0.00,,,0.00,WUHU216HW,2013-02-06 05:40:00,
2013-02-05 23:46:00,10.8,6.3,30.04,North,0,1.1,3.4,82,0.00,,,0.00,WUHU216HW,2013-02-06 05:46:00,
2013-02-05 23:51:00,10.8,6.6,30.05,North,0,2.7,2.7,83,0.00,,,0.00,WUHU216HW,2013-02-06 05:51:00,
2013-02-05 23:55:00,10.4,6.2,30.05,North,0,2.0,3.1,83,0.00,,,0.00,WUHU216HW,2013-02-06 05:55:00,